createdAt,value
2022-08-23T00:02:47.717Z,21.00
2022-08-23T00:05:36.496Z,21.00
2022-08-23T00:08:25.273Z,21.00
2022-08-23T00:11:26.792Z,21.00
2022-08-23T00:14:17.366Z,20.90
2022-08-23T00:17:06.767Z,20.90
2022-08-23T00:19:57.596Z,20.90
2022-08-23T00:22:46.405Z,20.80
2022-08-23T00:25:35.297Z,20.70
2022-08-23T00:28:24.175Z,20.70
2022-08-23T00:31:12.878Z,20.70
2022-08-23T00:34:04.195Z,20.80
2022-08-23T00:36:54.610Z,20.90
2022-08-23T00:39:43.666Z,20.90
2022-08-23T00:42:56.467Z,20.80
2022-08-23T00:46:10.349Z,20.80
2022-08-23T00:49:00.555Z,20.70
2022-08-23T00:51:57.628Z,20.70
2022-08-23T00:54:48.755Z,20.70
2022-08-23T00:57:37.954Z,20.60
2022-08-23T01:00:27.788Z,20.70
2022-08-23T01:03:17.413Z,20.70
2022-08-23T01:06:15.489Z,20.60
2022-08-23T01:09:08.181Z,20.60
2022-08-23T01:12:05.741Z,20.50
2022-08-23T01:14:59.737Z,20.50
2022-08-23T01:17:54.052Z,20.40
2022-08-23T01:20:59.802Z,20.20
2022-08-23T01:23:56.374Z,20.20
2022-08-23T01:26:45.403Z,20.10
2022-08-23T01:29:34.182Z,20.10
2022-08-23T01:32:23.188Z,20.10
2022-08-23T01:35:12.962Z,20.00
2022-08-23T01:38:02.105Z,19.90
2022-08-23T01:40:52.626Z,19.90
2022-08-23T01:43:41.578Z,19.80
2022-08-23T01:46:30.275Z,19.80
2022-08-23T01:49:18.956Z,19.90
2022-08-23T01:52:07.783Z,20.00
2022-08-23T01:54:57.414Z,19.90
2022-08-23T01:57:50.401Z,19.90
2022-08-23T02:00:42.212Z,19.90
2022-08-23T02:03:30.882Z,19.90
2022-08-23T02:06:21.463Z,19.80
2022-08-23T02:09:17.156Z,19.80
2022-08-23T02:12:07.527Z,19.80
2022-08-23T02:14:57.739Z,19.70
2022-08-23T02:17:46.703Z,19.60
2022-08-23T02:20:36.102Z,19.60
2022-08-23T02:23:27.495Z,19.50
2022-08-23T02:26:16.250Z,19.50
2022-08-23T02:29:05.738Z,19.60
2022-08-23T02:31:55.823Z,19.50
2022-08-23T02:34:51.255Z,19.50
2022-08-23T02:37:54.077Z,19.50
2022-08-23T02:40:43.725Z,19.40
2022-08-23T02:43:36.450Z,19.30
2022-08-23T02:46:27.513Z,19.30
2022-08-23T02:49:18.834Z,19.30
2022-08-23T02:52:09.970Z,19.30
2022-08-23T02:54:58.861Z,19.10
2022-08-23T02:57:47.739Z,19.10
2022-08-23T03:00:36.626Z,19.00
2022-08-23T03:03:28.164Z,19.00
2022-08-23T03:06:25.559Z,18.90
2022-08-23T03:09:14.916Z,18.80
2022-08-23T03:12:17.667Z,18.80
2022-08-23T03:15:08.604Z,18.80
2022-08-23T03:17:57.475Z,18.70
2022-08-23T03:20:51.081Z,18.60
2022-08-23T03:23:42.384Z,18.60
2022-08-23T03:26:31.376Z,18.50
2022-08-23T03:29:20.284Z,18.50
2022-08-23T03:32:16.098Z,18.40
2022-08-23T03:35:15.080Z,18.40
2022-08-23T03:38:04.182Z,18.30
2022-08-23T03:41:00.246Z,18.20
2022-08-23T03:43:49.062Z,18.10
2022-08-23T03:46:37.960Z,18.10
2022-08-23T03:49:34.421Z,18.00
2022-08-23T03:52:23.078Z,18.00
2022-08-23T03:55:12.262Z,17.90
2022-08-23T03:58:02.465Z,17.90
2022-08-23T04:00:58.295Z,17.80
2022-08-23T04:03:48.546Z,17.70
2022-08-23T04:06:37.591Z,17.60
2022-08-23T04:09:26.877Z,17.50
2022-08-23T04:12:17.624Z,17.50
2022-08-23T04:15:09.714Z,17.40
2022-08-23T04:18:00.812Z,17.40
2022-08-23T04:20:51.977Z,17.20
2022-08-23T04:23:40.989Z,17.20
2022-08-23T04:26:30.357Z,17.20
2022-08-23T04:29:31.462Z,17.20
2022-08-23T04:32:28.148Z,17.20
2022-08-23T04:35:17.974Z,17.20
2022-08-23T04:38:24.765Z,17.30
2022-08-23T04:41:33.385Z,17.30
2022-08-23T04:44:22.302Z,17.30
2022-08-23T04:47:11.288Z,17.30
2022-08-23T04:50:03.985Z,17.40
2022-08-23T04:52:58.754Z,17.30
2022-08-23T04:55:47.597Z,17.30
2022-08-23T04:58:38.634Z,17.30
2022-08-23T05:01:27.446Z,17.20
2022-08-23T05:04:21.853Z,17.20
2022-08-23T05:07:13.315Z,17.10
2022-08-23T05:10:02.054Z,17.10
2022-08-23T05:15:47.547Z,17.10
2022-08-23T05:18:36.390Z,17.10
2022-08-23T05:21:26.542Z,17.00
2022-08-23T05:24:23.157Z,17.00
2022-08-23T05:27:13.788Z,17.10
2022-08-23T05:30:02.982Z,17.10
2022-08-23T05:33:02.159Z,17.20
2022-08-23T05:35:52.068Z,17.30
2022-08-23T05:38:41.748Z,17.40
2022-08-23T05:44:36.756Z,17.60
2022-08-23T05:47:27.280Z,17.70
2022-08-23T05:50:25.913Z,17.80
2022-08-23T05:53:14.831Z,17.90
2022-08-23T05:59:16.804Z,18.10
2022-08-23T06:02:06.248Z,18.10
2022-08-23T06:05:03.973Z,18.20
2022-08-23T06:07:54.091Z,18.30
2022-08-23T06:10:42.856Z,18.40
2022-08-23T06:16:36.792Z,18.70
2022-08-23T06:19:25.957Z,18.90
2022-08-23T06:22:26.990Z,19.00
2022-08-23T06:25:17.258Z,19.20
2022-08-23T06:28:06.002Z,19.40
2022-08-23T06:31:09.587Z,19.50
2022-08-23T06:33:58.742Z,19.70
2022-08-23T06:36:50.341Z,19.90
2022-08-23T06:39:39.991Z,20.10
2022-08-23T06:42:38.109Z,20.20
2022-08-23T06:45:34.914Z,20.40
2022-08-23T06:48:24.517Z,20.60
2022-08-23T06:51:14.737Z,21.20
2022-08-23T06:54:06.378Z,21.60
2022-08-23T06:56:55.816Z,21.70
2022-08-23T06:59:45.982Z,21.70
2022-08-23T07:02:34.923Z,21.70
2022-08-23T07:05:23.670Z,21.70
2022-08-23T07:08:12.409Z,21.70
2022-08-23T07:11:01.344Z,21.80
2022-08-23T07:13:50.136Z,21.90
2022-08-23T07:16:42.107Z,22.00
2022-08-23T07:19:32.452Z,22.10
2022-08-23T07:22:24.834Z,22.20
2022-08-23T07:25:13.606Z,22.20
2022-08-23T07:28:03.400Z,22.40
2022-08-23T07:30:52.138Z,22.50
2022-08-23T07:33:44.581Z,22.70
2022-08-23T07:36:35.992Z,22.80
2022-08-23T07:39:26.492Z,22.90
2022-08-23T07:42:23.147Z,22.90
2022-08-23T07:45:13.080Z,22.90
2022-08-23T07:48:03.039Z,23.10
2022-08-23T07:50:58.131Z,23.10
2022-08-23T07:53:47.574Z,23.30
2022-08-23T07:56:37.006Z,23.30
2022-08-23T07:59:25.805Z,23.40
2022-08-23T08:02:14.590Z,23.70
2022-08-23T08:05:03.481Z,23.90
2022-08-23T08:07:53.632Z,24.20
2022-08-23T08:10:44.056Z,24.50
2022-08-23T08:13:32.801Z,24.60
2022-08-23T08:16:24.391Z,24.60
2022-08-23T08:19:18.943Z,24.60
2022-08-23T08:22:08.921Z,24.50
2022-08-23T08:24:59.021Z,24.50
2022-08-23T08:27:48.310Z,24.60
2022-08-23T08:30:36.995Z,24.50
2022-08-23T08:33:30.668Z,24.50
2022-08-23T08:36:32.459Z,24.50
2022-08-23T08:39:23.777Z,24.70
2022-08-23T08:42:34.396Z,24.70
2022-08-23T08:45:26.913Z,24.80
2022-08-23T08:48:19.032Z,24.80
2022-08-23T08:51:21.043Z,24.90
2022-08-23T08:54:13.611Z,24.80
2022-08-23T08:57:03.289Z,24.90
2022-08-23T08:59:59.732Z,25.30
2022-08-23T09:02:48.541Z,25.30
2022-08-23T09:05:40.094Z,25.20
2022-08-23T09:08:49.018Z,25.30
2022-08-23T09:11:53.894Z,25.20
2022-08-23T09:15:04.506Z,25.30
2022-08-23T09:17:55.906Z,25.20
2022-08-23T09:20:48.307Z,25.20
2022-08-23T09:23:41.711Z,25.30
2022-08-23T09:26:32.558Z,25.60
2022-08-23T09:29:25.324Z,25.60
2022-08-23T09:32:29.421Z,25.60
2022-08-23T09:35:21.181Z,25.70
2022-08-23T09:38:20.445Z,25.90
2022-08-23T09:41:20.390Z,26.10
2022-08-23T09:44:13.573Z,26.20
2022-08-23T09:47:08.862Z,26.60
2022-08-23T09:50:10.013Z,26.70
2022-08-23T09:53:04.432Z,26.70
2022-08-23T09:55:57.260Z,26.60
2022-08-23T09:58:51.085Z,26.80
2022-08-23T10:01:39.987Z,26.80
2022-08-23T10:04:41.274Z,26.60
2022-08-23T10:07:38.517Z,26.60
2022-08-23T10:10:36.949Z,26.70
2022-08-23T10:13:25.927Z,27.00
2022-08-23T10:16:26.007Z,27.20
2022-08-23T10:19:24.346Z,27.50
2022-08-23T10:22:20.434Z,27.70
2022-08-23T10:25:20.085Z,27.70
2022-08-23T10:28:47.615Z,27.80
2022-08-23T10:31:44.350Z,27.80
2022-08-23T10:34:50.729Z,27.60
2022-08-23T10:37:50.890Z,27.40
2022-08-23T10:40:46.626Z,27.40
2022-08-23T10:43:43.005Z,27.60
2022-08-23T10:46:35.505Z,27.80
2022-08-23T10:49:26.742Z,27.70
2022-08-23T10:52:21.872Z,27.70
2022-08-23T10:55:35.971Z,27.60
2022-08-23T10:58:32.667Z,27.60
2022-08-23T11:01:26.438Z,27.70
2022-08-23T11:04:23.288Z,27.70
2022-08-23T11:07:17.837Z,27.70
2022-08-23T11:10:16.739Z,27.40
2022-08-23T11:13:09.684Z,27.40
2022-08-23T11:16:02.893Z,27.60
2022-08-23T11:18:52.651Z,27.60
2022-08-23T11:21:49.649Z,27.50
2022-08-23T11:24:58.863Z,27.30
2022-08-23T11:27:47.681Z,27.20
2022-08-23T11:30:51.186Z,27.30
2022-08-23T11:33:49.052Z,27.50
2022-08-23T11:36:38.172Z,27.30
2022-08-23T11:39:27.062Z,27.10
2022-08-23T11:42:20.973Z,26.80
2022-08-23T11:45:23.870Z,26.90
2022-08-23T11:48:19.916Z,27.30
2022-08-23T11:51:24.968Z,27.60
2022-08-23T11:54:39.277Z,27.80
2022-08-23T11:57:45.074Z,27.90
2022-08-23T12:01:09.436Z,27.70
2022-08-23T12:04:01.130Z,27.60
2022-08-23T12:06:53.166Z,27.50
2022-08-23T12:09:56.142Z,27.60
2022-08-23T12:12:47.408Z,27.80
2022-08-23T12:16:16.113Z,28.10
2022-08-23T12:19:13.511Z,28.60
2022-08-23T12:22:12.742Z,29.10
2022-08-23T12:25:04.183Z,29.30
2022-08-23T12:28:00.698Z,29.20
2022-08-23T12:30:58.283Z,28.90
2022-08-23T12:34:04.056Z,28.50
2022-08-23T12:37:04.505Z,28.30
2022-08-23T12:39:58.924Z,28.20
2022-08-23T12:42:48.075Z,28.60
2022-08-23T12:45:43.300Z,29.20
2022-08-23T12:48:33.491Z,29.40
2022-08-23T12:51:22.220Z,29.30
2022-08-23T12:54:16.499Z,29.10
2022-08-23T12:57:11.694Z,29.10
2022-08-23T13:00:17.008Z,29.80
2022-08-23T13:03:13.725Z,30.80
2022-08-23T13:06:07.596Z,31.40
2022-08-23T13:09:03.945Z,31.20
2022-08-23T13:11:53.630Z,30.50
2022-08-23T13:14:47.924Z,29.70
2022-08-23T13:17:39.863Z,29.20
2022-08-23T13:20:28.735Z,28.70
2022-08-23T13:23:30.143Z,28.30
2022-08-23T13:26:43.442Z,28.30
2022-08-23T13:29:32.495Z,28.50
2022-08-23T13:32:35.123Z,28.60
2022-08-23T13:35:33.935Z,28.60
2022-08-23T13:38:27.106Z,28.80
2022-08-23T13:41:31.670Z,29.00
2022-08-23T13:44:22.477Z,29.00
2022-08-23T13:47:25.810Z,28.70
2022-08-23T13:50:23.005Z,28.50
2022-08-23T13:53:14.915Z,28.80
2022-08-23T13:56:04.630Z,29.10
2022-08-23T13:58:59.335Z,29.30
2022-08-23T14:01:48.135Z,29.60
2022-08-23T14:04:37.404Z,29.90
2022-08-23T14:07:27.602Z,30.30
2022-08-23T14:10:18.339Z,30.70
2022-08-23T14:13:08.296Z,31.00
2022-08-23T14:19:19.222Z,31.60
2022-08-23T14:22:21.927Z,31.60
2022-08-23T14:25:13.705Z,31.40
2022-08-23T14:28:02.511Z,30.50
2022-08-23T14:30:51.572Z,30.00
2022-08-23T14:33:40.871Z,29.50
2022-08-23T14:36:30.074Z,29.00
2022-08-23T14:39:19.246Z,28.80
2022-08-23T14:42:10.412Z,28.80
2022-08-23T14:44:59.108Z,28.80
2022-08-23T14:47:47.819Z,28.70
2022-08-23T14:50:36.628Z,28.60
2022-08-23T14:53:28.967Z,28.50
2022-08-23T14:56:21.501Z,28.60
2022-08-23T14:59:12.161Z,28.40
2022-08-23T15:02:01.385Z,28.30
2022-08-23T15:04:50.226Z,28.30
2022-08-23T15:07:39.108Z,28.40
2022-08-23T15:13:49.230Z,28.60
2022-08-23T15:16:45.984Z,28.60
2022-08-23T15:19:34.793Z,28.40
2022-08-23T15:22:23.901Z,28.40
2022-08-23T15:25:15.501Z,28.40
2022-08-23T15:28:07.617Z,28.40
2022-08-23T15:31:00.539Z,28.20
2022-08-23T15:33:50.882Z,28.10
2022-08-23T15:36:42.564Z,28.30
2022-08-23T15:39:31.359Z,28.20
2022-08-23T15:42:20.774Z,28.10
2022-08-23T15:45:10.444Z,28.10
2022-08-23T15:48:01.324Z,28.00
2022-08-23T15:50:52.683Z,28.10
2022-08-23T15:53:41.826Z,28.10
2022-08-23T15:56:33.112Z,28.00
2022-08-23T15:59:22.831Z,28.00
2022-08-23T16:02:11.656Z,28.10
2022-08-23T16:05:00.530Z,28.00
2022-08-23T16:07:54.267Z,28.20
2022-08-23T16:10:43.050Z,28.20
2022-08-23T16:13:32.028Z,28.10
2022-08-23T16:16:23.924Z,27.90
2022-08-23T16:19:12.715Z,27.80
2022-08-23T16:22:02.933Z,27.80
2022-08-23T16:24:54.422Z,27.70
2022-08-23T16:27:43.301Z,27.70
2022-08-23T16:30:32.146Z,27.60
2022-08-23T16:33:20.935Z,27.60
2022-08-23T16:36:10.549Z,27.50
2022-08-23T16:38:59.532Z,27.60
2022-08-23T16:41:50.099Z,27.60
2022-08-23T16:44:39.130Z,27.60
2022-08-23T16:47:28.302Z,27.80
2022-08-23T16:50:17.138Z,27.80
2022-08-23T16:53:07.359Z,27.80
2022-08-23T16:55:56.814Z,27.80
2022-08-23T16:58:47.099Z,27.80
2022-08-23T17:01:46.326Z,27.80
2022-08-23T17:04:35.103Z,27.80
2022-08-23T17:07:23.867Z,27.80
2022-08-23T17:10:14.583Z,27.80
2022-08-23T17:13:03.981Z,27.80
2022-08-23T17:15:54.312Z,27.80
2022-08-23T17:18:43.046Z,27.70
2022-08-23T17:21:32.170Z,27.50
2022-08-23T17:24:20.972Z,27.40
2022-08-23T17:27:09.857Z,27.40
2022-08-23T17:30:11.150Z,27.30
2022-08-23T17:33:03.313Z,27.20
2022-08-23T17:35:52.203Z,27.20
2022-08-23T17:38:40.875Z,27.10
2022-08-23T17:41:29.750Z,27.00
2022-08-23T17:44:24.079Z,26.90
2022-08-23T17:47:16.232Z,26.80
2022-08-23T17:50:07.813Z,26.70
2022-08-23T17:52:56.621Z,26.60
2022-08-23T17:55:46.586Z,26.60
2022-08-23T17:58:35.342Z,26.60
2022-08-23T18:01:24.369Z,26.50
2022-08-23T18:04:13.182Z,26.40
2022-08-23T18:07:03.380Z,26.20
2022-08-23T18:09:52.250Z,26.20
2022-08-23T18:12:41.828Z,26.00
2022-08-23T18:15:31.461Z,25.90
2022-08-23T18:18:20.278Z,25.70
2022-08-23T18:21:12.080Z,25.50
2022-08-23T18:24:02.197Z,25.30
2022-08-23T18:27:08.670Z,25.20
2022-08-23T18:29:57.612Z,25.10
2022-08-23T18:32:46.342Z,24.90
2022-08-23T18:35:36.456Z,24.80
2022-08-23T18:38:25.205Z,24.60
2022-08-23T18:41:15.485Z,24.50
2022-08-23T18:44:05.645Z,24.40
2022-08-23T18:46:54.679Z,24.30
2022-08-23T18:49:43.581Z,24.20
2022-08-23T18:52:32.574Z,24.10
2022-08-23T18:55:21.437Z,24.00
2022-08-23T18:58:11.772Z,23.90
2022-08-23T19:01:04.621Z,24.00
2022-08-23T19:03:56.348Z,23.90
2022-08-23T19:06:45.526Z,23.80
2022-08-23T19:09:34.251Z,23.70
2022-08-23T19:12:23.089Z,23.60
2022-08-23T19:15:14.538Z,23.50
2022-08-23T19:18:04.375Z,23.40
2022-08-23T19:20:53.080Z,23.30
2022-08-23T19:23:42.465Z,23.20
2022-08-23T19:26:34.493Z,23.20
2022-08-23T19:29:23.265Z,23.20
2022-08-23T19:32:14.101Z,23.20
2022-08-23T19:35:06.102Z,23.20
2022-08-23T19:37:54.815Z,23.00
2022-08-23T19:40:43.732Z,22.90
2022-08-23T19:43:32.654Z,22.80
2022-08-23T19:46:21.687Z,22.70
2022-08-23T19:49:13.178Z,22.70
2022-08-23T19:52:02.162Z,22.70
2022-08-23T19:54:50.883Z,22.70
2022-08-23T19:57:39.870Z,22.70
2022-08-23T20:00:31.659Z,22.70
2022-08-23T20:03:20.464Z,22.80
2022-08-23T20:06:15.079Z,22.70
2022-08-23T20:09:08.148Z,22.70
2022-08-23T20:11:57.620Z,22.60
2022-08-23T20:18:49.451Z,22.50
2022-08-23T20:35:22.495Z,22.40
2022-08-23T20:38:24.520Z,22.40
2022-08-23T20:41:19.997Z,22.30
2022-08-23T20:44:09.964Z,22.30
2022-08-23T20:47:02.873Z,22.20
2022-08-23T20:49:52.159Z,22.20
2022-08-23T20:52:42.306Z,22.10
2022-08-23T20:55:31.272Z,22.10
2022-08-23T20:58:19.983Z,22.10
2022-08-23T21:01:09.336Z,22.00
2022-08-23T21:04:00.622Z,22.00
2022-08-23T21:06:51.774Z,22.00
2022-08-23T21:09:43.748Z,22.00
2022-08-23T21:12:32.464Z,22.00
2022-08-23T21:15:21.345Z,22.00
2022-08-23T21:18:10.461Z,22.00
2022-08-23T21:20:59.526Z,22.00
2022-08-23T21:23:48.326Z,22.00
2022-08-23T21:26:39.090Z,22.00
2022-08-23T21:29:27.791Z,22.10
2022-08-23T21:32:16.900Z,22.10
2022-08-23T21:35:06.203Z,22.10
2022-08-23T21:37:54.936Z,22.20
2022-08-23T21:40:44.066Z,22.10
2022-08-23T21:43:37.451Z,22.00
2022-08-23T21:46:26.282Z,22.00
2022-08-23T21:49:16.204Z,22.10
2022-08-23T21:52:05.503Z,22.10
2022-08-23T21:54:49.668Z,22.10
2022-08-23T21:57:45.963Z,22.10
2022-08-23T22:00:36.368Z,22.10
2022-08-23T22:03:25.111Z,22.10
2022-08-23T22:06:16.048Z,22.10
2022-08-23T22:09:05.717Z,22.10
2022-08-23T22:11:55.007Z,22.00
2022-08-23T22:14:43.752Z,21.90
2022-08-23T22:17:34.050Z,21.80
2022-08-23T22:20:22.872Z,21.80
2022-08-23T22:23:11.716Z,21.70
2022-08-23T22:26:01.161Z,21.50
2022-08-23T22:28:49.878Z,21.40
2022-08-23T22:31:39.627Z,21.40
2022-08-23T22:34:29.908Z,21.20
2022-08-23T22:37:18.788Z,21.10
2022-08-23T22:40:10.470Z,21.00
2022-08-23T22:43:00.486Z,20.90
2022-08-23T22:45:53.677Z,20.90
2022-08-23T22:48:42.492Z,20.80
2022-08-23T22:51:34.217Z,20.80
2022-08-23T22:54:23.362Z,20.70
2022-08-23T22:57:12.308Z,20.70
2022-08-23T23:00:01.006Z,20.70
2022-08-23T23:02:50.026Z,20.70
2022-08-23T23:05:40.402Z,20.60
2022-08-23T23:08:30.665Z,20.70
2022-08-23T23:11:20.670Z,20.70
2022-08-23T23:14:11.360Z,20.70
2022-08-23T23:17:00.294Z,20.80
2022-08-23T23:20:06.264Z,20.70
2022-08-23T23:22:54.999Z,20.70
2022-08-23T23:25:46.233Z,20.70
2022-08-23T23:28:35.025Z,20.60
2022-08-23T23:31:23.770Z,20.60
2022-08-23T23:34:13.035Z,20.60
2022-08-23T23:37:02.401Z,20.60
2022-08-23T23:39:51.169Z,20.50
2022-08-23T23:42:41.333Z,20.50
2022-08-23T23:45:30.265Z,20.50
2022-08-23T23:48:19.430Z,20.40
2022-08-23T23:51:09.523Z,20.40
2022-08-23T23:54:00.916Z,20.40
2022-08-23T23:56:50.144Z,20.30
2022-08-23T23:59:41.273Z,20.30
